KSLN/SLN METAR and TAF weather

Enter ICAO airport designator
Station Type Date Time Source
KSLN METAR 2022/11/26 08:53 UTC NOAA

KSLN 260853Z AUTO 17003KT 10SM CLR 00/M03 A3012 RMK AO2 SLP205 T00001028 56017


Station Type Date Time Source
KSLN Decoded METAR 2022/11/26 08:53 UTC NOAA

SALINA MUNICIPAL AIRPORT, KS, United States (KSLN) 38-47N 97-39W 385M
Nov 26, 2022 - 03:53 AM EST / 2022.11.26 0853 UTC
Wind: from the S (170 degrees) at 3 MPH (3 KT):0
Visibility: 10 mile(s):0
Sky conditions: clear
Temperature: 32.0 F (0.0 C)
Dew Point: 27.0 F (-2.8 C)
Relative Humidity: 81%
Pressure (altimeter): 30.12 in. Hg (1019 hPa)
Pressure tendency: 0.05 inches (1.7 hPa) lower than three hours ago
ob: KSLN 260853Z AUTO 17003KT 10SM CLR 00/M03 A3012 RMK AO2 SLP205 T00001028 56017
cycle: 9

Station Type Date Time Source
KSLN TAF 2022/11/26 06:22 UTC NOAA

TAF KSLN 260520Z 2606/2706 19004KT P6SM BKN200
FM262200 10005KT P6SM BKN030
FM270300 02008KT 6SM -RA BR OVC025

Example: see airport list